Updated07/10/2022 8:52am 
 

Nearby Airport METAR Reports

 

KVSF - Springfield, Vermont, USA
Distance from station: WSW 8mi, 12km
Updated: 10/07/2022 8:36am
Overcast
Overcast
 Wind from SE
Wind: SE 6 km/h
Temperature: 52°F , 11°C
Dew Point: 50°F , 10°C
Humidity: 94%
Barometer: 1013.9 hPa
Clouds: Overcast
Visibility: 16 km
Cloud details: Partly cloudy 400 ft
Mostly cloudy 7500 ft
Overcast 9000 ft
2022/10/07 12:36 KVSF 071236Z AUTO 14003KT 10SM SCT004 BKN075 OVC090 11/10 A2994 RMK AO2 RAE00 P0000 T01060100
KLEB - Lebanon, New Hampshire, USA
Distance from station: N 18mi, 29km
Updated: 10/07/2022 8:07am
Mist, Overcast
Mist, Overcast
 Wind from calm
Wind: Calm
Temperature: 54°F , 12°C
Dew Point: 50°F , 10°C
Humidity: 88%
Barometer: 1013.5 hPa
Summary: Mist
Clouds: Overcast
Visibility: 2 km
Cloud details: Overcast 100 ft
2022/10/07 12:07 KLEB 071207Z 00000KT 1SM BR OVC001 12/10 A2993 RMK AO2 T01170100
KRUT - Rutland State, Vermont, USA
Distance from station: WNW 31mi, 50km
Updated: 10/07/2022 7:56am
Overcast
Overcast
 Wind from calm
Wind: Calm
Temperature: 54°F , 12°C
Dew Point: 54°F , 12°C
Humidity: 100%
Barometer: 1013.2 hPa
Clouds: Overcast
Visibility: 16 km
Cloud details: Few Clouds 8000 ft
Overcast 11000 ft
2022/10/07 11:56 KRUT 071156Z AUTO 00000KT 10SM FEW080 OVC110 12/12 A2992 RMK AO2 RAB07E53 SLP127 P0000 60000 T01170117 10117 20106 58006 $
 
KEEN - Keene/Dillant, New Hampshire, USA
Distance from station: S 34mi, 55km
Updated: 10/07/2022 7:56am
Partly cloudy
Partly cloudy
 Wind from calm
Wind: Calm
Temperature: 48°F , 9°C
Dew Point: 48°F , 9°C
Humidity: 100%
Clouds: Partly cloudy
Visibility: 16 km
Cloud details: Few Clouds 200 ft
Partly cloudy 7500 ft
2022/10/07 11:56 KEEN 071156Z AUTO 00000KT 10SM FEW002 SCT075 09/09 RMK AO2 SLPNO 6//// 7//// T00940094 10100 20089 $
K1P1 - Plymouth, New Hampshire, USA
Distance from station: NE 42mi, 67km
Updated: 10/07/2022 8:35am
Light snow, Partly cloudy
Light snow, Partly cloudy
 Wind from calm
Wind: Calm
Temperature: 48°F , 9°C
Dew Point: 48°F , 9°C
Humidity: 100%
Barometer: 1013.5 hPa
Summary: Light Snow
Clouds: Partly cloudy
Visibility: 6 km
Cloud details: Partly cloudy 12000 ft
2022/10/07 12:35 K1P1 071235Z AUTO 00000KT 4SM -SN SCT120 09/09 A2993 RMK AO2 T00910088
KAFN - Jaffrey, New Hampshire, USA
Distance from station: SSE 44mi, 70km
Updated: 10/07/2022 7:52am
Few Clouds
Few Clouds
 Wind from SSE
Wind: SSE 7 km/h
Temperature: 55°F , 13°C
Dew Point: 52°F , 11°C
Humidity: 88%
Barometer: 1014.2 hPa
Clouds: Few Clouds
Visibility: 16 km
Cloud details: Few Clouds 10000 ft
2022/10/07 11:52 KAFN 071152Z AUTO 16004KT 10SM FEW100 13/11 A2995 RMK AO2 SLP147 T01280111 10128 20100 53007
 
KCON - Concord, New Hampshire, USA
Distance from station: ESE 45mi, 73km
Updated: 10/07/2022 7:51am
Clear
Clear
 Wind from E
Wind: E 15 km/h
Temperature: 50°F , 10°C
Wind Chill: 46°F , 8°C
Dew Point: 48°F , 9°C
Humidity: 94%
Barometer: 1013.5 hPa
Clouds: Clear
Visibility: 16 km
2022/10/07 11:51 KCON 071151Z AUTO 09008KT 10SM CLR 10/09 A2993 RMK AO2 SLP137 T01000094 10100 20078 53008
KLCI - Laconia Muni, New Hampshire, USA
Distance from station: ENE 49mi, 80km
Updated: 10/07/2022 7:56am
Clear
Clear
 Wind from W
Wind: W 11 km/h
Temperature: 54°F , 12°C
Dew Point: 54°F , 12°C
Humidity: 100%
Barometer: 1013.5 hPa
Clouds: Clear
Visibility: 16 km
2022/10/07 11:56 KLCI 071156Z AUTO 26006KT 10SM CLR 12/12 A2993 RMK AO2 SLP134 7//// T01220122 10122 20106 53007
KDDH - Bennington, Vermont, USA
Distance from station: SW 55mi, 89km
Updated: 10/07/2022 7:54am
Mostly cloudy
Mostly cloudy
 Wind from calm
Wind: Calm
Temperature: 54°F , 12°C
Dew Point: 52°F , 11°C
Humidity: 94%
Barometer: 1013.5 hPa
Clouds: Mostly cloudy
Visibility: 13 km
Cloud details: Few Clouds 9500 ft
Mostly cloudy 11000 ft
2022/10/07 11:54 KDDH 071154Z AUTO 00000KT 8SM FEW095 BKN110 12/11 A2993 RMK AO2 SLP137 T01170106 10117 20089 58005
 
K6B0 - Middlebury, Vermont, USA
Distance from station: NW 56mi, 90km
Updated: 10/07/2022 8:35am
Clear
Clear
 Wind from calm
Wind: Calm
Temperature: 57°F , 14°C
Dew Point: 57°F , 14°C
Humidity: 100%
Barometer: 1012.5 hPa
Clouds: Clear
Visibility: 16 km
2022/10/07 12:35 K6B0 071235Z AUTO 00000KT 10SM CLR 14/14 A2990 RMK AO2 T01410137 P0004
KMHT - Manchester, New Hampshire, USA
Distance from station: ESE 56mi, 90km
Updated: 10/07/2022 7:53am
Mostly cloudy
Mostly cloudy
 Wind from calm
Wind: Calm
Temperature: 54°F , 12°C
Dew Point: 50°F , 10°C
Humidity: 88%
Barometer: 1013.2 hPa
Clouds: Mostly cloudy
Visibility: 16 km
Cloud details: Few Clouds 6500 ft
Partly cloudy 15000 ft
Mostly cloudy 25000 ft
2022/10/07 11:53 KMHT 071153Z 00000KT 10SM FEW065 SCT150 BKN250 12/10 A2992 RMK AO2 SLP144 T01170100 10117 20100 53008
KORE - Orange, Massachusetts, USA
Distance from station: S 56mi, 90km
Updated: 10/07/2022 8:30am
Mostly cloudy
Mostly cloudy
 Wind from calm
Wind: Calm
Temperature: 52°F , 11°C
Dew Point: 52°F , 11°C
Humidity: 100%
Barometer: 1014.2 hPa
Clouds: Mostly cloudy
Visibility: 14 km
Cloud details: Mostly cloudy 100 ft
2022/10/07 12:30 KORE 071230Z AUTO 00000KT 9SM BKN001 11/11 A2995 RMK AO2 T01110106
 
KMPV - Montpelier/Barre, Vermont, USA
Distance from station: N 58mi, 93km
Updated: 10/07/2022 8:33am
Mist, Mostly cloudy
Mist, Mostly cloudy
 Wind from calm
Wind: Calm
Temperature: 52°F , 11°C
Dew Point: 46°F , 8°C
Humidity: 82%
Barometer: 1014.2 hPa
Summary: Mist
Clouds: Mostly cloudy
Visibility: 8 km
Cloud details: Partly cloudy 100 ft
Partly cloudy 1200 ft
Mostly cloudy 7500 ft
2022/10/07 12:33 KMPV 071233Z AUTO 00000KT 5SM BR SCT001 SCT012 BKN075 11/08 A2995 RMK AO2 RAE23 P0003 T01060083
KASH - Nashua/Boire Fld, New Hampshire, USA
Distance from station: SE 59mi, 95km
Updated: 10/07/2022 7:56am
Partly cloudy
Partly cloudy
 Wind from WNW
Wind: WNW 7 km/h
Temperature: 52°F , 11°C
Barometer: 1013.9 hPa
Clouds: Partly cloudy
Visibility: 16 km
Cloud details: Partly cloudy 6500 ft
2022/10/07 11:56 KASH 071156Z 30004KT 10SM SCT065 11/ A2994 RMK AO2 SLP143 T0106 10111 20094 53010 $
KAQW - North Adams, Massachusetts, USA
Distance from station: SW 62mi, 99km
Updated: 10/07/2022 7:52am
Few Clouds
Few Clouds
 Wind from calm
Wind: Calm
Temperature: 52°F , 11°C
Dew Point: 50°F , 10°C
Humidity: 94%
Barometer: 1014.2 hPa
Clouds: Few Clouds
Visibility: 14 km
Cloud details: Few Clouds 300 ft
2022/10/07 11:52 KAQW 071152Z AUTO 00000KT 9SM FEW003 11/10 A2995 RMK AO2 SLP145 T01060100 10111 20100 52003
 
KGFL - Glens Falls, New York, USA
Distance from station: W 63mi, 101km
Updated: 10/07/2022 8:48am
Few Clouds
Few Clouds
 Wind from calm
Wind: Calm
Temperature: 55°F , 13°C
Dew Point: 55°F , 13°C
Humidity: 100%
Barometer: 1013.2 hPa
Clouds: Few Clouds
Visibility: 11 km
Cloud details: Few Clouds 300 ft
2022/10/07 12:48 KGFL 071248Z AUTO 00000KT 7SM FEW003 13/13 A2992 RMK AO2
KFIT - Fitchburg, Massachusetts, USA
Distance from station: SSE 65mi, 105km
Updated: 10/07/2022 7:52am
Few Clouds
Few Clouds
 Wind from calm
Wind: Calm
Temperature: 57°F , 14°C
Dew Point: 52°F , 11°C
Humidity: 82%
Barometer: 1013.5 hPa
Clouds: Few Clouds
Visibility: 16 km
Cloud details: Few Clouds 6500 ft
2022/10/07 11:52 KFIT 071152Z AUTO 00000KT 10SM FEW065 14/11 A2993 RMK AO2 SLP137 T01390111 10144 20106 53006
KDAW - Rochester, New Hampshire, USA
Distance from station: E 73mi, 118km
Updated: 10/07/2022 7:51am
Clear
Clear
 Wind from NW
Wind: NW 6 km/h
Temperature: 54°F , 12°C
Dew Point: 50°F , 10°C
Humidity: 88%
Barometer: 1012.9 hPa
Clouds: Clear
Visibility: 16 km
2022/10/07 11:51 KDAW 071151Z AUTO 31003KT 10SM CLR 12/10 A2991 RMK AO2 SLP125 T01170100 10117 20100 51008
 
K1V4 - St. Johnsbury, Vermont, USA
Distance from station: NNE 74mi, 119km
Updated: 10/07/2022 7:54am

 
Temperature: 48°F , 9°C
Dew Point: 45°F , 7°C
Humidity: 87%
Barometer: 1013.5 hPa
2022/10/07 11:54 K1V4 071154Z AUTO 09/07 A2993 RMK AO1 SLP132 6//// 7//// T00940072 10094 20089 53007 PNO
KLWM - Lawrence, Massachusetts, USA
Distance from station: SE 77mi, 124km
Updated: 10/07/2022 7:54am
Clear
Clear
 Wind from calm
Wind: Calm
Temperature: 54°F , 12°C
Dew Point: 52°F , 11°C
Humidity: 94%
Barometer: 1013.9 hPa
Clouds: Clear
Visibility: 16 km
2022/10/07 11:54 KLWM 071154Z 00000KT 10SM CLR 12/11 A2994 RMK AO2 SLP138 T01220111 10133 20117 53007



Flag Counter
free counter page views since 4/29/2009